createdAt,value
2017-11-22T00:02:00.881Z,8.53
2017-11-22T00:04:29.196Z,8.43
2017-11-22T00:06:57.502Z,9.40
2017-11-22T00:09:25.802Z,9.10
2017-11-22T00:11:54.111Z,9.23
2017-11-22T00:14:22.391Z,10.10
2017-11-22T00:16:50.708Z,10.50
2017-11-22T00:19:19.016Z,10.43
2017-11-22T00:21:47.611Z,10.00
2017-11-22T00:24:15.973Z,10.85
2017-11-22T00:26:44.260Z,10.33
2017-11-22T00:29:12.568Z,10.60
2017-11-22T00:31:40.857Z,10.87
2017-11-22T00:34:09.178Z,10.50
2017-11-22T00:36:37.457Z,11.00
2017-11-22T00:39:05.780Z,11.25
2017-11-22T00:41:34.091Z,11.73
2017-11-22T00:44:02.394Z,11.83
2017-11-22T00:46:30.773Z,10.77
2017-11-22T00:48:59.048Z,10.80
2017-11-22T00:51:27.405Z,10.60
2017-11-22T00:53:55.676Z,11.73
2017-11-22T00:56:23.990Z,10.80
2017-11-22T00:58:52.260Z,10.30
2017-11-22T01:01:20.560Z,10.20
2017-11-22T01:03:48.842Z,10.30
2017-11-22T01:06:17.152Z,10.63
2017-11-22T01:08:45.438Z,10.57
2017-11-22T01:11:13.777Z,10.43
2017-11-22T01:13:42.101Z,10.00
2017-11-22T01:16:10.362Z,10.07
2017-11-22T01:18:38.623Z,9.63
2017-11-22T01:21:06.930Z,10.35
2017-11-22T01:23:35.281Z,9.50
2017-11-22T01:26:03.601Z,8.80
2017-11-22T01:28:31.867Z,10.20
2017-11-22T01:31:00.177Z,9.73
2017-11-22T01:33:28.457Z,9.30
2017-11-22T01:35:56.775Z,8.73
2017-11-22T01:38:25.029Z,9.30
2017-11-22T01:40:53.372Z,9.20
2017-11-22T01:43:21.645Z,9.25
2017-11-22T01:45:49.977Z,9.60
2017-11-22T01:48:18.241Z,9.20
2017-11-22T01:50:46.576Z,9.73
2017-11-22T01:53:14.848Z,9.63
2017-11-22T01:55:43.171Z,8.98
2017-11-22T01:58:11.424Z,8.85
2017-11-22T02:00:51.352Z,8.90
2017-11-22T02:03:19.617Z,7.43
2017-11-22T02:05:47.904Z,8.90
2017-11-22T02:08:16.369Z,8.82
2017-11-22T02:10:44.648Z,7.97
2017-11-22T02:13:12.957Z,7.85
2017-11-22T02:15:41.242Z,8.33
2017-11-22T02:18:09.556Z,8.75
2017-11-22T02:20:37.810Z,8.97
2017-11-22T02:23:06.075Z,8.30
2017-11-22T02:25:34.391Z,8.47
2017-11-22T02:28:02.646Z,8.07
2017-11-22T02:30:30.960Z,7.77
2017-11-22T02:32:59.217Z,8.47
2017-11-22T02:35:27.502Z,7.23
2017-11-22T02:37:55.777Z,8.53
2017-11-22T02:40:24.098Z,8.77
2017-11-22T02:42:52.368Z,8.43
2017-11-22T02:45:20.640Z,7.93
2017-11-22T02:47:48.920Z,8.87
2017-11-22T02:50:17.198Z,8.15
2017-11-22T02:52:45.477Z,8.93
2017-11-22T02:55:14.064Z,8.07
2017-11-22T02:57:42.343Z,8.90
2017-11-22T03:00:10.619Z,8.05
2017-11-22T03:02:38.910Z,8.60
2017-11-22T03:05:07.206Z,8.70
2017-11-22T03:07:35.482Z,8.10
2017-11-22T03:10:03.769Z,8.37
2017-11-22T03:12:32.042Z,8.20
2017-11-22T03:15:00.337Z,7.97
2017-11-22T03:17:28.606Z,8.93
2017-11-22T03:19:57.518Z,7.87
2017-11-22T03:22:25.761Z,8.50
2017-11-22T03:24:54.056Z,8.95
2017-11-22T03:27:22.364Z,8.35
2017-11-22T03:29:50.729Z,8.90
2017-11-22T03:32:18.969Z,8.38
2017-11-22T03:34:47.266Z,8.17
2017-11-22T03:37:15.563Z,8.60
2017-11-22T03:39:43.812Z,8.00
2017-11-22T03:42:12.136Z,8.95
2017-11-22T03:44:40.629Z,9.60
2017-11-22T03:47:08.884Z,8.50
2017-11-22T03:49:42.756Z,8.70
2017-11-22T03:52:16.569Z,9.00
2017-11-22T03:54:44.841Z,8.50
2017-11-22T03:57:13.457Z,9.55
2017-11-22T03:59:41.733Z,9.17
2017-11-22T04:02:10.011Z,9.15
2017-11-22T04:04:38.309Z,9.57
2017-11-22T04:07:06.784Z,8.83
2017-11-22T04:09:35.113Z,9.20
2017-11-22T04:12:03.397Z,9.70
2017-11-22T04:14:31.705Z,9.33
2017-11-22T04:16:59.981Z,9.70
2017-11-22T04:22:21.416Z,8.67
2017-11-22T04:24:49.705Z,8.17
2017-11-22T04:27:17.980Z,9.33
2017-11-22T04:29:46.269Z,9.23
2017-11-22T04:32:14.836Z,9.13
2017-11-22T04:34:43.128Z,8.47
2017-11-22T04:37:11.451Z,9.30
2017-11-22T04:39:39.732Z,8.90
2017-11-22T04:42:08.071Z,9.00
2017-11-22T04:44:36.323Z,8.63
2017-11-22T04:47:04.968Z,9.97
2017-11-22T04:49:36.112Z,9.00
2017-11-22T04:52:04.406Z,9.57
2017-11-22T04:54:32.693Z,8.97
2017-11-22T04:57:00.977Z,10.23
2017-11-22T04:59:29.249Z,10.03
2017-11-22T05:01:57.536Z,10.60
2017-11-22T05:04:25.908Z,10.93
2017-11-22T05:06:54.192Z,9.73
2017-11-22T05:09:22.459Z,10.00
2017-11-22T05:11:50.742Z,9.40
2017-11-22T05:14:19.115Z,9.67
2017-11-22T05:16:47.386Z,9.70
2017-11-22T05:19:15.657Z,9.93
2017-11-22T05:21:43.945Z,10.73
2017-11-22T05:24:12.229Z,9.50
2017-11-22T05:26:40.574Z,10.27
2017-11-22T05:29:08.835Z,10.70
2017-11-22T05:31:37.437Z,9.80
2017-11-22T05:34:05.746Z,10.50
2017-11-22T05:36:34.003Z,10.80
2017-11-22T05:39:02.353Z,9.70
2017-11-22T05:41:30.674Z,10.30
2017-11-22T05:43:58.953Z,10.87
2017-11-22T05:46:27.228Z,10.40
2017-11-22T05:48:55.523Z,11.13
2017-11-22T05:51:23.832Z,10.67
2017-11-22T05:53:52.165Z,11.60
2017-11-22T05:56:20.489Z,11.60
2017-11-22T05:58:48.784Z,11.83
2017-11-22T06:01:17.076Z,11.20
2017-11-22T06:03:45.344Z,10.90
2017-11-22T06:06:13.710Z,10.27
2017-11-22T06:08:41.970Z,10.83
2017-11-22T06:11:10.305Z,10.44
2017-11-22T06:13:38.576Z,10.40
2017-11-22T06:16:06.876Z,9.70
2017-11-22T06:18:35.148Z,11.13
2017-11-22T06:21:03.476Z,11.40
2017-11-22T06:23:31.744Z,10.70
2017-11-22T06:26:02.726Z,12.53
2017-11-22T06:28:31.023Z,12.03
2017-11-22T06:30:59.290Z,11.70
2017-11-22T06:33:27.589Z,12.13
2017-11-22T06:35:56.110Z,11.90
2017-11-22T06:38:24.582Z,12.80
2017-11-22T06:40:52.855Z,12.20
2017-11-22T06:43:21.169Z,12.07
2017-11-22T06:45:49.514Z,12.40
2017-11-22T06:48:17.792Z,12.15
2017-11-22T06:50:46.102Z,11.90
2017-11-22T06:53:14.444Z,12.32
2017-11-22T06:55:43.659Z,12.70
2017-11-22T06:58:11.969Z,11.87
2017-11-22T07:00:40.290Z,12.60
2017-11-22T07:03:10.343Z,12.35
2017-11-22T07:05:38.661Z,12.50
2017-11-22T07:08:06.997Z,11.87
2017-11-22T07:10:35.296Z,13.00
2017-11-22T07:13:04.667Z,12.18
2017-11-22T07:15:32.932Z,11.20
2017-11-22T07:18:01.241Z,11.30
2017-11-22T07:20:29.540Z,11.20
2017-11-22T07:22:57.820Z,11.10
2017-11-22T07:25:26.087Z,11.50
2017-11-22T07:27:54.437Z,10.73
2017-11-22T07:30:22.730Z,9.47
2017-11-22T07:32:51.004Z,9.83
2017-11-22T07:38:20.369Z,9.80
2017-11-22T07:40:48.715Z,9.43
2017-11-22T07:43:16.971Z,9.80
2017-11-22T07:45:45.542Z,10.20
2017-11-22T07:48:15.740Z,9.00
2017-11-22T07:50:45.771Z,10.23
2017-11-22T07:53:14.049Z,10.07
2017-11-22T07:55:42.338Z,9.70
2017-11-22T07:58:10.605Z,9.65
2017-11-22T08:00:38.904Z,8.90
2017-11-22T08:03:09.142Z,9.57
2017-11-22T08:05:37.408Z,9.20
2017-11-22T08:08:05.704Z,9.53
2017-11-22T08:10:34.897Z,10.33
2017-11-22T08:13:03.248Z,10.17
2017-11-22T08:15:31.506Z,9.67
2017-11-22T08:17:59.854Z,10.03
2017-11-22T08:20:28.175Z,9.50
2017-11-22T08:23:00.353Z,8.63
2017-11-22T08:25:28.680Z,9.45
2017-11-22T08:27:56.949Z,8.63
2017-11-22T08:30:25.276Z,9.17
2017-11-22T08:32:53.542Z,8.60
2017-11-22T08:35:21.851Z,8.20
2017-11-22T08:37:50.190Z,9.10
2017-11-22T08:40:19.430Z,9.50
2017-11-22T08:42:53.171Z,8.07
2017-11-22T08:45:21.467Z,8.50
2017-11-22T08:47:49.840Z,8.10
2017-11-22T08:50:18.092Z,8.50
2017-11-22T08:52:46.393Z,9.50
2017-11-22T08:58:16.820Z,8.23
2017-11-22T09:00:45.090Z,9.10
2017-11-22T09:03:15.283Z,8.40
2017-11-22T09:05:48.526Z,7.60
2017-11-22T09:08:16.798Z,8.90
2017-11-22T09:10:45.056Z,7.83
2017-11-22T09:13:30.859Z,9.03
2017-11-22T09:15:59.123Z,8.10
2017-11-22T09:18:33.073Z,8.57
2017-11-22T09:21:01.356Z,8.40
2017-11-22T09:23:29.641Z,7.93
2017-11-22T09:25:57.938Z,7.87
2017-11-22T09:28:26.231Z,7.57
2017-11-22T09:30:54.537Z,8.30
2017-11-22T09:33:25.628Z,8.38
2017-11-22T09:35:53.949Z,7.50
2017-11-22T09:38:22.218Z,7.55
2017-11-22T09:40:50.525Z,7.10
2017-11-22T09:43:18.820Z,8.00
2017-11-22T09:45:47.829Z,7.70
2017-11-22T09:48:16.113Z,7.80
2017-11-22T09:50:44.454Z,8.40
2017-11-22T09:53:12.732Z,7.63
2017-11-22T09:55:41.070Z,7.73
2017-11-22T09:58:09.439Z,7.23
2017-11-22T10:00:37.714Z,6.70
2017-11-22T10:03:06.008Z,7.33
2017-11-22T10:05:35.257Z,7.97
2017-11-22T10:08:04.236Z,8.20
2017-11-22T10:10:32.542Z,8.23
2017-11-22T10:13:00.845Z,8.43
2017-11-22T10:15:29.201Z,7.87
2017-11-22T10:18:03.128Z,8.33
2017-11-22T10:20:31.400Z,6.97
2017-11-22T10:22:59.713Z,8.20
2017-11-22T10:25:28.023Z,8.20
2017-11-22T10:28:01.887Z,7.20
2017-11-22T10:30:30.275Z,7.03
2017-11-22T10:35:59.753Z,7.53
2017-11-22T10:38:28.052Z,7.97
2017-11-22T10:40:56.340Z,6.55
2017-11-22T10:43:24.649Z,6.67
2017-11-22T10:45:52.946Z,7.83
2017-11-22T10:48:21.228Z,7.03
2017-11-22T10:50:49.521Z,6.83
2017-11-22T10:53:17.797Z,6.75
2017-11-22T10:55:46.088Z,7.93
2017-11-22T10:58:14.415Z,6.37
2017-11-22T11:00:42.730Z,6.60
2017-11-22T11:03:11.017Z,6.70
2017-11-22T11:05:39.383Z,5.50
2017-11-22T11:08:07.671Z,6.50
2017-11-22T11:10:35.948Z,6.50
2017-11-22T11:13:04.801Z,6.33
2017-11-22T11:15:33.116Z,7.03
2017-11-22T11:18:01.419Z,7.10
2017-11-22T11:20:29.723Z,6.10
2017-11-22T11:22:58.676Z,6.90
2017-11-22T11:25:32.908Z,6.50
2017-11-22T11:28:01.166Z,6.80
2017-11-22T11:30:29.476Z,7.00
2017-11-22T11:32:58.282Z,6.67
2017-11-22T11:35:38.188Z,6.87
2017-11-22T11:38:06.455Z,6.40
2017-11-22T11:40:35.549Z,6.30
2017-11-22T11:43:04.531Z,5.87
2017-11-22T11:45:32.899Z,6.23
2017-11-22T11:48:01.275Z,5.90
2017-11-22T11:50:32.400Z,6.63
2017-11-22T11:53:00.775Z,6.17
2017-11-22T11:55:29.125Z,5.62
2017-11-22T11:57:57.448Z,6.70
2017-11-22T12:00:25.732Z,6.10
2017-11-22T12:02:54.051Z,6.10
2017-11-22T12:05:22.899Z,6.50
2017-11-22T12:07:51.151Z,5.70
2017-11-22T12:10:19.486Z,5.70
2017-11-22T12:12:47.736Z,6.10
2017-11-22T12:15:16.155Z,7.13
2017-11-22T12:17:45.298Z,6.45
2017-11-22T12:20:13.616Z,6.68
2017-11-22T12:22:44.547Z,6.97
2017-11-22T12:25:12.921Z,6.17
2017-11-22T12:27:41.189Z,6.50
2017-11-22T12:30:10.272Z,5.83
2017-11-22T12:32:38.572Z,5.80
2017-11-22T12:35:06.866Z,7.97
2017-11-22T12:37:35.192Z,5.50
2017-11-22T12:40:03.530Z,6.70
2017-11-22T12:42:32.629Z,6.00
2017-11-22T12:45:00.925Z,5.97
2017-11-22T12:47:29.338Z,6.00
2017-11-22T12:49:57.645Z,7.40
2017-11-22T12:52:25.964Z,5.50
2017-11-22T12:54:54.325Z,5.83
2017-11-22T12:57:22.644Z,5.97
2017-11-22T12:59:50.930Z,5.00
2017-11-22T13:02:19.201Z,6.23
2017-11-22T13:04:47.633Z,6.10
2017-11-22T13:07:15.946Z,5.18
2017-11-22T13:09:44.276Z,5.70
2017-11-22T13:12:12.632Z,5.83
2017-11-22T13:14:40.898Z,5.90
2017-11-22T13:17:09.204Z,5.75
2017-11-22T13:19:37.460Z,5.60
2017-11-22T13:22:05.833Z,5.80
2017-11-22T13:24:34.115Z,5.40
2017-11-22T13:27:02.407Z,5.60
2017-11-22T13:29:30.757Z,5.50
2017-11-22T13:31:59.091Z,5.60
2017-11-22T13:34:27.416Z,5.03
2017-11-22T13:36:55.797Z,5.20
2017-11-22T13:39:24.109Z,5.20
2017-11-22T13:41:55.325Z,6.40
2017-11-22T13:44:23.726Z,5.17
2017-11-22T13:46:52.090Z,5.70
2017-11-22T13:49:22.765Z,6.25
2017-11-22T13:51:51.064Z,5.83
2017-11-22T13:54:19.400Z,5.13
2017-11-22T13:56:47.733Z,5.20
2017-11-22T13:59:16.017Z,4.97
2017-11-22T14:01:44.317Z,5.43
2017-11-22T14:04:12.693Z,5.90
2017-11-22T14:06:41.039Z,5.60
2017-11-22T14:09:09.404Z,5.82
2017-11-22T14:11:37.716Z,5.07
2017-11-22T14:14:06.006Z,5.90
2017-11-22T14:16:34.276Z,4.23
2017-11-22T14:19:02.571Z,5.53
2017-11-22T14:21:30.851Z,5.18
2017-11-22T14:23:59.918Z,4.80
2017-11-22T14:26:28.235Z,4.67
2017-11-22T14:28:56.544Z,4.80
2017-11-22T14:31:24.903Z,5.00
2017-11-22T14:33:53.325Z,4.93
2017-11-22T14:36:21.682Z,4.70
2017-11-22T14:38:49.954Z,5.27
2017-11-22T14:41:18.300Z,4.60
2017-11-22T14:43:46.598Z,5.60
2017-11-22T14:46:14.950Z,5.25
2017-11-22T14:48:43.352Z,5.43
2017-11-22T14:51:11.679Z,5.40
2017-11-22T14:53:39.980Z,5.73
2017-11-22T14:56:08.381Z,4.90
2017-11-22T14:58:36.804Z,5.43
2017-11-22T15:01:05.116Z,5.03
2017-11-22T15:03:33.533Z,5.00
2017-11-22T15:06:01.813Z,5.30
2017-11-22T15:08:30.181Z,5.70
2017-11-22T15:10:58.483Z,5.40
2017-11-22T15:13:27.311Z,4.87
2017-11-22T15:15:55.655Z,5.40
2017-11-22T15:18:24.397Z,5.37
2017-11-22T15:20:52.705Z,5.23
2017-11-22T15:23:21.769Z,5.60
2017-11-22T15:25:50.161Z,8.40
2017-11-22T15:28:18.404Z,6.12
2017-11-22T15:30:46.728Z,6.17
2017-11-22T15:33:15.058Z,5.63
2017-11-22T15:35:43.321Z,6.05
2017-11-22T15:38:11.646Z,5.60
2017-11-22T15:40:39.910Z,6.20
2017-11-22T15:43:08.236Z,11.30
2017-11-22T15:45:36.519Z,7.10
2017-11-22T15:48:05.081Z,6.78
2017-11-22T15:50:33.407Z,8.10
2017-11-22T15:53:01.778Z,7.17
2017-11-22T15:55:30.060Z,8.00
2017-11-22T15:57:58.855Z,12.00
2017-11-22T16:00:27.737Z,8.07
2017-11-22T16:02:56.001Z,6.00
2017-11-22T16:05:24.256Z,5.83
2017-11-22T16:07:52.578Z,6.60
2017-11-22T16:10:20.840Z,6.10
2017-11-22T16:12:49.212Z,6.60
2017-11-22T16:15:17.483Z,5.53
2017-11-22T16:17:45.765Z,6.27
2017-11-22T16:20:14.073Z,5.78
2017-11-22T16:22:42.340Z,5.70
2017-11-22T16:25:10.746Z,4.73
2017-11-22T16:27:38.994Z,4.50
2017-11-22T16:30:07.278Z,6.00
2017-11-22T16:32:35.577Z,6.00
2017-11-22T16:35:05.433Z,6.00
2017-11-22T16:37:33.777Z,5.50
2017-11-22T16:40:02.108Z,2.60
2017-11-22T16:42:30.425Z,4.13
2017-11-22T16:44:58.692Z,6.70
2017-11-22T16:47:27.007Z,5.73
2017-11-22T16:49:55.301Z,6.40
2017-11-22T16:52:23.607Z,7.63
2017-11-22T16:54:51.899Z,8.33
2017-11-22T16:57:20.168Z,8.00
2017-11-22T16:59:48.482Z,7.60
2017-11-22T17:02:16.787Z,7.90
2017-11-22T17:04:45.054Z,6.10
2017-11-22T17:07:13.682Z,5.57
2017-11-22T17:09:42.014Z,6.00
2017-11-22T17:12:10.303Z,6.45
2017-11-22T17:14:38.615Z,6.33
2017-11-22T17:17:06.924Z,5.90
2017-11-22T17:19:35.302Z,5.80
2017-11-22T17:22:03.584Z,8.00
2017-11-22T17:24:31.840Z,8.60
2017-11-22T17:27:00.160Z,7.87
2017-11-22T17:29:28.468Z,7.20
2017-11-22T17:31:56.756Z,7.37
2017-11-22T17:34:25.034Z,7.13
2017-11-22T17:36:53.347Z,6.90
2017-11-22T17:39:21.675Z,7.20
2017-11-22T17:41:49.990Z,9.43
2017-11-22T17:44:18.330Z,7.00
2017-11-22T17:46:46.604Z,6.70
2017-11-22T17:49:14.915Z,6.80
2017-11-22T17:51:43.228Z,7.00
2017-11-22T17:54:11.525Z,8.30
2017-11-22T17:56:39.801Z,8.07
2017-11-22T17:59:08.137Z,7.57
2017-11-22T18:01:36.441Z,6.67
2017-11-22T18:04:04.897Z,6.90
2017-11-22T18:06:33.507Z,7.30
2017-11-22T18:09:01.874Z,6.57
2017-11-22T18:11:30.211Z,7.17
2017-11-22T18:13:58.463Z,7.17
2017-11-22T18:16:26.898Z,6.13
2017-11-22T18:18:55.147Z,7.13
2017-11-22T18:21:23.486Z,7.47
2017-11-22T18:23:51.773Z,6.50
2017-11-22T18:26:20.110Z,6.53
2017-11-22T18:28:48.372Z,6.80
2017-11-22T18:31:16.698Z,9.45
2017-11-22T18:33:45.026Z,7.18
2017-11-22T18:36:14.302Z,6.87
2017-11-22T18:38:42.611Z,5.40
2017-11-22T18:41:10.884Z,6.07
2017-11-22T18:43:39.163Z,7.87
2017-11-22T18:46:07.425Z,6.07
2017-11-22T18:48:35.719Z,5.83
2017-11-22T18:51:03.999Z,5.57
2017-11-22T18:53:32.285Z,5.73
2017-11-22T18:56:00.585Z,5.70
2017-11-22T18:58:28.848Z,5.70
2017-11-22T19:00:57.869Z,5.30
2017-11-22T19:03:26.101Z,5.63
2017-11-22T19:05:54.394Z,5.70
2017-11-22T19:08:22.889Z,5.25
2017-11-22T19:10:51.196Z,6.00
2017-11-22T19:13:19.467Z,5.50
2017-11-22T19:15:47.746Z,5.33
2017-11-22T19:18:16.025Z,5.90
2017-11-22T19:20:44.624Z,5.47
2017-11-22T19:23:12.873Z,5.62
2017-11-22T19:25:41.140Z,6.57
2017-11-22T19:28:09.497Z,6.65
2017-11-22T19:30:37.799Z,6.17
2017-11-22T19:33:06.107Z,5.80
2017-11-22T19:35:34.360Z,5.97
2017-11-22T19:38:02.685Z,6.70
2017-11-22T19:40:30.969Z,7.07
2017-11-22T19:42:59.525Z,7.20
2017-11-22T19:45:27.868Z,7.67
2017-11-22T19:47:56.369Z,7.90
2017-11-22T19:50:24.622Z,9.57
2017-11-22T19:52:52.908Z,10.82
2017-11-22T19:55:21.220Z,9.55
2017-11-22T19:57:49.531Z,9.27
2017-11-22T20:00:17.822Z,10.40
2017-11-22T20:02:46.093Z,10.90
2017-11-22T20:05:14.411Z,13.20
2017-11-22T20:07:46.762Z,10.93
2017-11-22T20:10:15.094Z,11.15
2017-11-22T20:12:43.370Z,10.17
2017-11-22T20:15:11.727Z,11.63
2017-11-22T20:17:39.982Z,10.93
2017-11-22T20:20:08.265Z,10.60
2017-11-22T20:22:36.573Z,12.30
2017-11-22T20:25:04.871Z,12.43
2017-11-22T20:27:33.176Z,11.90
2017-11-22T20:30:01.555Z,10.53
2017-11-22T20:32:29.875Z,11.30
2017-11-22T20:34:58.150Z,9.43
2017-11-22T20:37:26.775Z,9.87
2017-11-22T20:39:55.034Z,9.23
2017-11-22T20:42:23.357Z,10.40
2017-11-22T20:44:51.616Z,9.77
2017-11-22T20:47:19.911Z,9.68
2017-11-22T20:49:48.210Z,9.87
2017-11-22T20:52:16.465Z,9.37
2017-11-22T20:54:44.755Z,9.60
2017-11-22T20:57:13.268Z,10.20
2017-11-22T20:59:41.565Z,8.50
2017-11-22T21:02:09.877Z,7.78
2017-11-22T21:04:38.188Z,7.53
2017-11-22T21:07:06.473Z,7.20
2017-11-22T21:09:36.463Z,8.03
2017-11-22T21:12:04.943Z,7.37
2017-11-22T21:14:33.281Z,7.57
2017-11-22T21:17:01.549Z,7.47
2017-11-22T21:19:29.821Z,9.10
2017-11-22T21:21:58.101Z,7.47
2017-11-22T21:24:26.482Z,7.90
2017-11-22T21:26:55.056Z,7.80
2017-11-22T21:29:23.274Z,7.57
2017-11-22T21:31:51.617Z,7.43
2017-11-22T21:34:19.891Z,7.35
2017-11-22T21:36:48.275Z,7.07
2017-11-22T21:39:16.549Z,7.00
2017-11-22T21:41:44.829Z,6.50
2017-11-22T21:44:13.101Z,5.80
2017-11-22T21:46:41.388Z,5.40
2017-11-22T21:49:09.747Z,6.20
2017-11-22T21:51:38.037Z,6.50
2017-11-22T21:54:06.325Z,6.47
2017-11-22T21:56:34.630Z,6.97
2017-11-22T21:59:02.871Z,7.53
2017-11-22T22:01:31.145Z,6.00
2017-11-22T22:03:59.429Z,5.87
2017-11-22T22:06:27.684Z,6.33
2017-11-22T22:08:55.997Z,5.40
2017-11-22T22:11:24.332Z,5.30
2017-11-22T22:13:52.581Z,5.40
2017-11-22T22:16:20.885Z,5.20
2017-11-22T22:18:49.145Z,5.60
2017-11-22T22:21:17.398Z,5.12
2017-11-22T22:23:45.678Z,5.20
2017-11-22T22:26:13.956Z,5.12
2017-11-22T22:28:42.237Z,6.53
2017-11-22T22:31:10.543Z,6.57
2017-11-22T22:33:38.806Z,6.80
2017-11-22T22:36:07.094Z,6.80
2017-11-22T22:38:35.353Z,7.97
2017-11-22T22:41:03.677Z,8.40
2017-11-22T22:43:31.955Z,7.73
2017-11-22T22:46:00.257Z,9.50
2017-11-22T22:48:29.012Z,8.37
2017-11-22T22:50:57.308Z,8.87
2017-11-22T22:53:25.649Z,8.37
2017-11-22T22:55:53.918Z,8.20
2017-11-22T22:58:22.186Z,8.57
2017-11-22T23:00:50.496Z,8.27
2017-11-22T23:03:19.200Z,8.07
2017-11-22T23:05:47.464Z,8.60
2017-11-22T23:08:15.784Z,8.93
2017-11-22T23:10:44.087Z,8.73
2017-11-22T23:13:12.365Z,8.10
2017-11-22T23:15:40.642Z,7.63
2017-11-22T23:18:08.933Z,7.60
2017-11-22T23:20:37.197Z,7.90
2017-11-22T23:23:05.601Z,8.30
2017-11-22T23:25:33.853Z,8.63
2017-11-22T23:28:02.126Z,8.30
2017-11-22T23:30:30.408Z,8.90
2017-11-22T23:32:58.691Z,8.65
2017-11-22T23:35:26.991Z,8.60
2017-11-22T23:37:55.257Z,7.87
2017-11-22T23:40:23.550Z,8.13
2017-11-22T23:42:51.830Z,7.50
2017-11-22T23:45:20.137Z,8.50
2017-11-22T23:47:48.391Z,9.30
2017-11-22T23:50:17.332Z,7.93
2017-11-22T23:52:45.626Z,9.70
2017-11-22T23:55:13.904Z,8.75
2017-11-22T23:57:42.513Z,7.37
